Kalaheo, HI

4:41 PM HST on July 28, 2016 (GMT -1000)
Lawai | | Change Station

Elev 512 ft 21.92 °N, 159.51 °W | Updated 17 seconds ago

Mostly Cloudy
Mostly Cloudy
80.8 °F
Feels Like 85 °F
N
4.0
Wind Variable Wind from NW
Gusts 6.0 mph

Today
High -- | Low -- °F
--% Chance of Precip.
Yesterday
High -- | Low -- °F
Precip. -- in
Pressure 30.02 in
Visibility 10.0 miles
Clouds Scattered Clouds 1900 ft
Scattered Clouds 3100 ft
Mostly Cloudy 4400 ft
Heat Index 85 °F
Dew Point 71 °F
Humidity 73%
Rainfall 0.00 in
Snow Depth Not available.
6:09 AM 7:19 PM
Waning Crescent, 26% visible
METAR PHLI 290153Z 05016KT 10SM SCT019 SCT031 BKN044 28/22 A3003 RMK AO2 SLP166 T02780222
Pressure 30.02 in
Visibility 10.0 miles
Clouds Scattered Clouds 1900 ft
Scattered Clouds 3100 ft
Mostly Cloudy 4400 ft
Heat Index 85 °F
Dew Point 71 °F
Humidity 73%
Rainfall 0.00 in
Snow Depth Not available.
6:09 AM 7:19 PM
Waning Crescent, 26% visible
METAR PHLI 290153Z 05016KT 10SM SCT019 SCT031 BKN044 28/22 A3003 RMK AO2 SLP166 T02780222

10-Day Weather Forecast

Almanac

Astronomy

Jul. 28, 2016 Rise Set
Actual Time
Civil Twilight
Nautical Twilight
Astronomical Twilight
Moon
Length of Visible Light
Length of Day
Tomorrow will be .
, % of the Moon is Illuminated

Today's Extremes

State Highs State Lows

Community

WunderPhotos

Upload Photos

1,928,274 photos uploaded!

WunderBlog® & News

Nearby

Air Quality

  Air Quality AQ Index Pollutant
Not available.

Snow Depth

Station Depth Elevation

Earthquake Activity

City Distance Mag. Time & Date
Minimum magnitude displayed is 2.5.

Coastal Water Temperatures

Place Temperature

Stations

Nearby Weather Stations

Station Location Temp. Windchill Dew Point Humidity Wind Precip. Elev Updated Type
                   

Watches & Warnings

There are currently no watches in effect.